createdAt,value
2022-10-19T00:01:07.726Z,96365.53
2022-10-19T00:03:35.862Z,96370.47
2022-10-19T00:06:21.900Z,96364.72
2022-10-19T00:08:48.363Z,96369.41
2022-10-19T00:11:15.047Z,96372.09
2022-10-19T00:13:41.502Z,96366.28
2022-10-19T00:16:11.747Z,96354.56
2022-10-19T00:18:38.730Z,96366.28
2022-10-19T00:21:07.547Z,96375.75
2022-10-19T00:23:34.319Z,96372.88
2022-10-19T00:26:01.047Z,96367.53
2022-10-19T00:28:28.709Z,96370.56
2022-10-19T00:30:55.311Z,96365.66
2022-10-19T00:33:21.797Z,96360.94
2022-10-19T00:35:50.570Z,96359.69
2022-10-19T00:38:18.392Z,96366.66
2022-10-19T00:40:46.022Z,96369.09
2022-10-19T00:43:25.192Z,96361.47
2022-10-19T00:45:51.831Z,96366.59
2022-10-19T00:48:27.221Z,96371.06
2022-10-19T00:50:58.248Z,96362.69
2022-10-19T00:53:28.651Z,96366.78
2022-10-19T00:55:57.696Z,96365.97
2022-10-19T00:58:24.421Z,96364.72
2022-10-19T01:00:51.087Z,96362.28
2022-10-19T01:03:18.255Z,96357.94
2022-10-19T01:05:44.750Z,96362.66
2022-10-19T01:08:12.036Z,96365.31
2022-10-19T01:11:14.721Z,96360.81
2022-10-19T01:14:01.114Z,96359.56
2022-10-19T01:16:52.956Z,96358.28
2022-10-19T01:19:34.557Z,96361.16
2022-10-19T01:22:31.270Z,96351.31
2022-10-19T01:25:19.381Z,96343.28
2022-10-19T01:28:07.539Z,96345.94
2022-10-19T01:30:52.716Z,96340.38
2022-10-19T01:33:37.556Z,96341.38
2022-10-19T01:36:37.044Z,96337.91
2022-10-19T01:39:23.052Z,96324.19
2022-10-19T01:42:01.900Z,96332.34
2022-10-19T01:44:31.316Z,96331.03
2022-10-19T01:47:08.434Z,96329.81
2022-10-19T01:49:41.829Z,96331.41
2022-10-19T01:52:13.910Z,96324.47
2022-10-19T01:54:47.248Z,96332.22
2022-10-19T01:57:23.534Z,96328.16
2022-10-19T01:59:53.216Z,96327.38
2022-10-19T02:02:21.471Z,96325.28
2022-10-19T02:04:50.902Z,96314.22
2022-10-19T02:07:21.627Z,96318.91
2022-10-19T02:09:48.485Z,96323.97
2022-10-19T02:12:16.849Z,96330.88
2022-10-19T02:14:47.545Z,96328.41
2022-10-19T02:17:23.927Z,96325.13
2022-10-19T02:19:51.465Z,96322.63
2022-10-19T02:22:18.047Z,96316.56
2022-10-19T02:24:44.571Z,96310.88
2022-10-19T02:27:11.512Z,96315.78
2022-10-19T02:29:39.522Z,96312.34
2022-10-19T02:32:07.099Z,96304.91
2022-10-19T02:34:35.389Z,96307.78
2022-10-19T02:37:02.106Z,96302.03
2022-10-19T02:39:29.334Z,96295.34
2022-10-19T02:42:11.813Z,96302.47
2022-10-19T02:44:50.644Z,96293.06
2022-10-19T02:47:19.630Z,96291.19
2022-10-19T02:49:49.055Z,96288.00
2022-10-19T02:52:15.501Z,96280.81
2022-10-19T02:54:44.493Z,96281.97
2022-10-19T02:57:24.266Z,96289.75
2022-10-19T02:59:52.147Z,96289.97
2022-10-19T03:02:20.435Z,96282.38
2022-10-19T03:07:20.971Z,96290.09
2022-10-19T03:09:47.728Z,96290.47
2022-10-19T03:12:14.913Z,96289.34
2022-10-19T03:14:41.629Z,96279.06
2022-10-19T03:17:08.267Z,96280.09
2022-10-19T03:19:36.125Z,96285.59
2022-10-19T03:22:02.957Z,96278.75
2022-10-19T03:24:30.579Z,96269.97
2022-10-19T03:26:57.502Z,96273.91
2022-10-19T03:29:24.008Z,96274.03
2022-10-19T03:31:50.523Z,96275.19
2022-10-19T03:34:17.208Z,96269.50
2022-10-19T03:36:43.672Z,96263.53
2022-10-19T03:39:13.161Z,96272.53
2022-10-19T03:41:40.082Z,96269.88
2022-10-19T03:44:08.960Z,96271.88
2022-10-19T03:46:36.587Z,96274.41
2022-10-19T03:49:04.343Z,96271.88
2022-10-19T03:51:32.464Z,96278.72
2022-10-19T03:54:03.321Z,96272.38
2022-10-19T03:56:31.687Z,96271.63
2022-10-19T03:59:00.835Z,96283.22
2022-10-19T04:01:36.434Z,96278.47
2022-10-19T04:04:09.860Z,96282.78
2022-10-19T04:06:39.621Z,96278.06
2022-10-19T04:09:08.248Z,96282.91
2022-10-19T04:11:35.871Z,96280.44
2022-10-19T04:14:31.921Z,96283.53
2022-10-19T04:17:00.845Z,96274.34
2022-10-19T04:19:27.326Z,96267.44
2022-10-19T04:21:53.980Z,96265.94
2022-10-19T04:24:20.481Z,96263.72
2022-10-19T04:26:50.613Z,96256.69
2022-10-19T04:29:18.893Z,96264.03
2022-10-19T04:31:45.985Z,96266.47
2022-10-19T04:34:12.493Z,96263.16
2022-10-19T04:36:39.080Z,96265.25
2022-10-19T04:39:06.703Z,96262.00
2022-10-19T04:41:33.541Z,96257.66
2022-10-19T04:44:02.571Z,96258.59
2022-10-19T04:46:30.419Z,96261.50
2022-10-19T04:48:57.413Z,96261.31
2022-10-19T04:51:24.375Z,96255.41
2022-10-19T04:53:51.671Z,96265.19
2022-10-19T04:56:23.321Z,96256.63
2022-10-19T04:58:49.937Z,96261.50
2022-10-19T05:01:19.809Z,96262.25
2022-10-19T05:03:47.604Z,96259.00
2022-10-19T05:06:15.670Z,96251.25
2022-10-19T05:08:42.168Z,96254.50
2022-10-19T05:11:14.374Z,96254.13
2022-10-19T05:13:42.044Z,96250.38
2022-10-19T05:16:13.225Z,96250.22
2022-10-19T05:18:40.409Z,96251.56
2022-10-19T05:21:10.346Z,96247.94
2022-10-19T05:23:37.791Z,96243.66
2022-10-19T05:26:10.291Z,96249.03
2022-10-19T05:28:37.575Z,96252.41
2022-10-19T05:31:15.292Z,96246.72
2022-10-19T05:33:42.889Z,96245.06
2022-10-19T05:36:16.735Z,96246.31
2022-10-19T05:38:44.687Z,96244.72
2022-10-19T05:41:11.316Z,96247.97
2022-10-19T05:43:37.921Z,96253.69
2022-10-19T05:46:10.653Z,96247.59
2022-10-19T05:48:37.314Z,96243.44
2022-10-19T05:51:05.780Z,96237.75
2022-10-19T05:53:33.953Z,96240.19
2022-10-19T05:56:00.828Z,96239.75
2022-10-19T05:58:30.005Z,96238.56
2022-10-19T06:01:00.780Z,96242.66
2022-10-19T06:03:28.483Z,96240.00
2022-10-19T06:05:58.868Z,96244.72
2022-10-19T06:08:25.672Z,96240.00
2022-10-19T06:10:52.324Z,96241.47
2022-10-19T06:13:20.165Z,96241.00
2022-10-19T06:15:51.217Z,96238.75
2022-10-19T06:18:17.849Z,96248.88
2022-10-19T06:20:45.611Z,96245.56
2022-10-19T06:23:12.221Z,96240.31
2022-10-19T06:25:38.770Z,96247.72
2022-10-19T06:28:05.396Z,96247.84
2022-10-19T06:30:31.980Z,96246.91
2022-10-19T06:32:58.965Z,96247.19
2022-10-19T06:35:25.703Z,96250.09
2022-10-19T06:37:52.346Z,96245.16
2022-10-19T06:40:18.996Z,96244.53
2022-10-19T06:42:45.715Z,96231.88
2022-10-19T06:45:12.253Z,96238.16
2022-10-19T06:47:39.042Z,96232.50
2022-10-19T06:50:07.299Z,96240.09
2022-10-19T06:52:35.320Z,96239.50
2022-10-19T06:55:02.707Z,96243.00
2022-10-19T06:57:29.362Z,96256.47
2022-10-19T06:59:55.832Z,96262.47
2022-10-19T07:02:22.909Z,96252.47
2022-10-19T07:04:49.756Z,96258.91
2022-10-19T07:07:16.540Z,96250.50
2022-10-19T07:09:47.749Z,96258.28
2022-10-19T07:12:14.219Z,96254.84
2022-10-19T07:14:40.739Z,96255.47
2022-10-19T07:17:08.042Z,96262.00
2022-10-19T07:19:34.655Z,96249.31
2022-10-19T07:22:01.273Z,96247.38
2022-10-19T07:24:27.886Z,96241.09
2022-10-19T07:26:54.411Z,96238.31
2022-10-19T07:29:21.400Z,96237.31
2022-10-19T07:31:48.145Z,96241.25
2022-10-19T07:34:15.102Z,96238.03
2022-10-19T07:36:45.223Z,96241.94
2022-10-19T07:39:12.020Z,96251.38
2022-10-19T07:41:39.103Z,96245.28
2022-10-19T07:44:05.828Z,96249.81
2022-10-19T07:46:32.742Z,96248.88
2022-10-19T07:49:00.769Z,96248.41
2022-10-19T07:54:03.174Z,96237.97
2022-10-19T07:56:30.143Z,96243.94
2022-10-19T07:58:59.267Z,96250.31
2022-10-19T08:01:28.960Z,96256.88
2022-10-19T08:04:43.171Z,96243.75
2022-10-19T08:06:44.169Z,96254.44
2022-10-19T08:09:15.583Z,96260.59
2022-10-19T08:11:49.409Z,96251.97
2022-10-19T08:14:15.871Z,96250.16
2022-10-19T08:16:42.329Z,96236.81
2022-10-19T08:19:12.612Z,96229.22
2022-10-19T08:21:42.069Z,96237.22
2022-10-19T08:24:09.879Z,96219.56
2022-10-19T08:26:38.802Z,96224.88
2022-10-19T08:29:14.500Z,96221.97
2022-10-19T08:31:42.905Z,96213.34
2022-10-19T08:34:09.980Z,96216.00
2022-10-19T08:36:36.508Z,96209.03
2022-10-19T08:39:06.001Z,96212.56
2022-10-19T08:42:01.925Z,96217.25
2022-10-19T08:44:34.396Z,96216.28
2022-10-19T08:47:25.712Z,96224.50
2022-10-19T08:49:52.414Z,96217.31
2022-10-19T08:52:34.254Z,96211.75
2022-10-19T08:55:15.127Z,96209.25
2022-10-19T08:58:23.903Z,96203.25
2022-10-19T09:01:10.992Z,96202.59
2022-10-19T09:04:04.626Z,96201.84
2022-10-19T09:06:51.386Z,96204.28
2022-10-19T09:09:20.883Z,96196.59
2022-10-19T09:11:51.090Z,96198.59
2022-10-19T09:14:48.823Z,96196.53
2022-10-19T09:17:16.267Z,96199.41
2022-10-19T09:19:42.982Z,96194.84
2022-10-19T09:22:26.274Z,96188.13
2022-10-19T09:25:00.756Z,96196.97
2022-10-19T09:27:38.645Z,96201.44
2022-10-19T09:30:20.812Z,96193.63
2022-10-19T09:32:51.681Z,96191.09
2022-10-19T09:35:27.968Z,96196.03
2022-10-19T09:37:56.333Z,96191.31
2022-10-19T09:40:29.155Z,96194.84
2022-10-19T09:42:56.305Z,96184.06
2022-10-19T09:45:40.469Z,96181.13
2022-10-19T09:48:20.961Z,96181.88
2022-10-19T09:51:01.365Z,96178.22
2022-10-19T09:53:29.832Z,96174.81
2022-10-19T09:56:04.974Z,96174.53
2022-10-19T09:58:33.267Z,96169.03
2022-10-19T10:01:02.417Z,96170.50
2022-10-19T10:03:35.652Z,96171.84
2022-10-19T10:06:13.398Z,96167.72
2022-10-19T10:08:53.913Z,96167.56
2022-10-19T10:11:48.314Z,96178.38
2022-10-19T10:14:28.712Z,96182.50
2022-10-19T10:17:17.130Z,96179.81
2022-10-19T10:20:05.907Z,96188.44
2022-10-19T10:22:35.886Z,96183.84
2022-10-19T10:25:13.549Z,96175.31
2022-10-19T10:27:40.116Z,96165.47
2022-10-19T10:30:16.841Z,96173.69
2022-10-19T10:32:49.916Z,96166.69
2022-10-19T10:35:18.796Z,96169.03
2022-10-19T10:37:47.082Z,96166.28
2022-10-19T10:40:24.147Z,96164.84
2022-10-19T10:42:54.876Z,96165.66
2022-10-19T10:45:46.731Z,96158.56
2022-10-19T10:48:26.981Z,96158.75
2022-10-19T10:50:53.852Z,96146.66
2022-10-19T10:53:32.505Z,96135.13
2022-10-19T10:56:00.639Z,96135.66
2022-10-19T10:58:48.097Z,96131.50
2022-10-19T11:01:30.020Z,96132.03
2022-10-19T11:04:22.311Z,96138.75
2022-10-19T11:06:59.044Z,96132.19
2022-10-19T11:09:36.347Z,96122.06
2022-10-19T11:12:06.553Z,96121.88
2022-10-19T11:14:38.626Z,96113.78
2022-10-19T11:17:31.852Z,96116.19
2022-10-19T11:19:58.650Z,96113.41
2022-10-19T11:22:40.061Z,96108.34
2022-10-19T11:25:21.661Z,96113.34
2022-10-19T11:28:00.334Z,96110.41
2022-10-19T11:30:30.493Z,96103.84
2022-10-19T11:33:12.017Z,96102.97
2022-10-19T11:35:53.610Z,96088.44
2022-10-19T11:38:43.504Z,96078.34
2022-10-19T11:41:22.046Z,96078.81
2022-10-19T11:44:13.444Z,96070.81
2022-10-19T11:46:55.240Z,96071.38
2022-10-19T11:49:39.831Z,96064.72
2022-10-19T11:52:23.837Z,96058.69
2022-10-19T11:55:18.005Z,96053.47
2022-10-19T11:57:57.379Z,96052.75
2022-10-19T12:00:39.924Z,96043.19
2022-10-19T12:03:42.535Z,96026.09
2022-10-19T12:06:18.239Z,96026.09
2022-10-19T12:09:06.553Z,96036.69
2022-10-19T12:11:51.477Z,96039.88
2022-10-19T12:14:25.608Z,96030.25
2022-10-19T12:16:56.905Z,96023.47
2022-10-19T12:19:33.250Z,96026.47
2022-10-19T12:22:03.622Z,96016.75
2022-10-19T12:24:33.848Z,96006.03
2022-10-19T12:27:01.853Z,96000.00
2022-10-19T12:29:34.223Z,95996.97
2022-10-19T12:32:04.619Z,95998.38
2022-10-19T12:34:52.582Z,95994.66
2022-10-19T12:37:33.108Z,96002.91
2022-10-19T12:40:02.614Z,96003.97
2022-10-19T12:42:55.331Z,96008.16
2022-10-19T12:45:31.939Z,96006.25
2022-10-19T12:48:10.438Z,95993.41
2022-10-19T12:50:49.096Z,95989.84
2022-10-19T12:56:01.978Z,95978.19
2022-10-19T12:58:38.065Z,95988.28
2022-10-19T13:01:07.237Z,95983.03
2022-10-19T13:03:40.119Z,95980.25
2022-10-19T13:06:32.644Z,95988.09
2022-10-19T13:09:06.713Z,95989.44
2022-10-19T13:14:13.662Z,95984.34
2022-10-19T13:16:57.672Z,95979.72
2022-10-19T13:19:24.753Z,95970.06
2022-10-19T13:22:22.740Z,95972.50
2022-10-19T13:25:11.180Z,95966.53
2022-10-19T13:27:39.438Z,95969.41
2022-10-19T13:30:35.234Z,95956.22
2022-10-19T13:33:23.586Z,95952.81
2022-10-19T13:35:59.173Z,95947.53
2022-10-19T13:38:46.996Z,95944.00
2022-10-19T13:41:21.427Z,95951.81
2022-10-19T13:44:09.308Z,95951.81
2022-10-19T13:46:56.906Z,95954.22
2022-10-19T13:49:55.016Z,95952.25
2022-10-19T13:52:36.808Z,95959.31
2022-10-19T13:55:20.741Z,95950.00
2022-10-19T13:58:18.226Z,95947.59
2022-10-19T14:00:53.748Z,95949.06
2022-10-19T14:03:36.141Z,95946.16
2022-10-19T14:06:35.752Z,95933.13
2022-10-19T14:09:28.102Z,95939.13
2022-10-19T14:12:21.565Z,95934.50
2022-10-19T14:14:48.017Z,95934.63
2022-10-19T14:17:19.737Z,95934.31
2022-10-19T14:19:50.257Z,95921.97
2022-10-19T14:22:23.441Z,95928.00
2022-10-19T14:24:50.311Z,95912.56
2022-10-19T14:27:23.100Z,95913.16
2022-10-19T14:29:52.332Z,95907.25
2022-10-19T14:32:25.644Z,95900.72
2022-10-19T14:34:53.599Z,95898.34
2022-10-19T14:37:26.406Z,95895.41
2022-10-19T14:40:04.748Z,95896.56
2022-10-19T14:42:41.069Z,95889.50
2022-10-19T14:45:15.181Z,95894.41
2022-10-19T14:48:03.199Z,95901.44
2022-10-19T14:50:51.167Z,95908.97
2022-10-19T14:53:36.131Z,95907.94
2022-10-19T14:56:16.119Z,95906.38
2022-10-19T14:59:07.460Z,95905.69
2022-10-19T15:01:35.774Z,95900.34
2022-10-19T15:04:03.038Z,95900.59
2022-10-19T15:06:33.531Z,95903.59
2022-10-19T15:09:04.960Z,95893.03
2022-10-19T15:11:38.434Z,95889.66
2022-10-19T15:14:14.026Z,95885.16
2022-10-19T15:16:49.059Z,95895.69
2022-10-19T15:19:17.726Z,95904.97
2022-10-19T15:21:44.831Z,95902.69
2022-10-19T15:24:27.944Z,95905.09
2022-10-19T15:27:08.406Z,95894.97
2022-10-19T15:29:35.757Z,95881.63
2022-10-19T15:32:21.450Z,95887.00
2022-10-19T15:34:48.071Z,95885.94
2022-10-19T15:37:20.627Z,95874.13
2022-10-19T15:39:48.199Z,95872.00
2022-10-19T15:42:23.604Z,95871.34
2022-10-19T15:44:50.068Z,95869.75
2022-10-19T15:47:16.496Z,95868.84
2022-10-19T15:49:42.912Z,95870.59
2022-10-19T15:52:21.714Z,95880.19
2022-10-19T15:54:53.507Z,95874.66
2022-10-19T15:57:40.445Z,95875.59
2022-10-19T16:00:14.012Z,95873.81
2022-10-19T16:02:40.679Z,95875.72
2022-10-19T16:05:07.965Z,95872.28
2022-10-19T16:07:38.442Z,95870.13
2022-10-19T16:10:06.179Z,95872.19
2022-10-19T16:12:32.708Z,95880.13
2022-10-19T16:14:59.200Z,95883.19
2022-10-19T16:17:25.712Z,95884.63
2022-10-19T16:19:52.212Z,95878.41
2022-10-19T16:22:18.688Z,95874.59
2022-10-19T16:24:45.157Z,95859.34
2022-10-19T16:27:11.615Z,95865.53
2022-10-19T16:29:38.112Z,95866.09
2022-10-19T16:32:04.657Z,95866.72
2022-10-19T16:34:31.235Z,95871.38
2022-10-19T16:37:00.454Z,95866.13
2022-10-19T16:39:29.245Z,95862.47
2022-10-19T16:50:35.651Z,95881.38
2022-10-19T16:53:10.051Z,95891.44
2022-10-19T16:55:37.623Z,95901.44
2022-10-19T16:58:04.140Z,95899.13
2022-10-19T17:00:30.760Z,95905.59
2022-10-19T17:02:57.465Z,95905.41
2022-10-19T17:05:23.966Z,95904.13
2022-10-19T17:07:50.449Z,95898.50
2022-10-19T17:10:16.959Z,95900.56
2022-10-19T17:12:43.475Z,95903.47
2022-10-19T17:17:56.492Z,95900.56
2022-10-19T17:20:22.938Z,95903.25
2022-10-19T17:22:51.928Z,95902.06
2022-10-19T17:25:18.454Z,95905.84
2022-10-19T17:27:44.925Z,95899.13
2022-10-19T17:30:11.424Z,95903.25
2022-10-19T17:32:38.022Z,95891.78
2022-10-19T17:35:04.982Z,95895.59
2022-10-19T17:37:31.478Z,95900.50
2022-10-19T17:39:57.973Z,95904.66
2022-10-19T17:42:24.466Z,95903.38
2022-10-19T17:44:51.105Z,95907.81
2022-10-19T17:47:17.596Z,95916.06
2022-10-19T17:49:44.074Z,95919.38
2022-10-19T17:52:10.542Z,95922.53
2022-10-19T17:54:48.534Z,95932.44
2022-10-19T17:57:24.154Z,95928.13
2022-10-19T17:59:53.310Z,95916.88
2022-10-19T18:02:20.147Z,95922.66
2022-10-19T18:04:46.804Z,95916.63
2022-10-19T18:07:13.276Z,95903.06
2022-10-19T18:09:39.751Z,95905.09
2022-10-19T18:12:07.545Z,95905.94
2022-10-19T18:14:34.301Z,95909.63
2022-10-19T18:17:00.743Z,95907.59
2022-10-19T18:19:27.334Z,95913.28
2022-10-19T18:21:53.849Z,95913.34
2022-10-19T18:24:20.466Z,95917.88
2022-10-19T18:26:50.026Z,95923.00
2022-10-19T18:29:20.203Z,95917.34
2022-10-19T18:31:47.198Z,95920.44
2022-10-19T18:34:15.341Z,95910.63
2022-10-19T18:36:42.593Z,95909.44
2022-10-19T18:39:11.628Z,95907.78
2022-10-19T18:41:38.317Z,95914.75
2022-10-19T18:44:06.162Z,95916.56
2022-10-19T18:46:35.767Z,95927.06
2022-10-19T18:49:05.259Z,95923.16
2022-10-19T18:51:31.805Z,95917.22
2022-10-19T18:53:58.803Z,95913.19
2022-10-19T18:56:26.746Z,95912.66
2022-10-19T18:58:53.290Z,95906.75
2022-10-19T19:01:25.902Z,95905.94
2022-10-19T19:03:55.030Z,95911.22
2022-10-19T19:06:27.435Z,95898.09
2022-10-19T19:08:55.605Z,95903.84
2022-10-19T19:11:33.054Z,95897.31
2022-10-19T19:14:06.852Z,95901.00
2022-10-19T19:16:37.423Z,95898.13
2022-10-19T19:19:05.252Z,95901.19
2022-10-19T19:21:33.203Z,95900.81
2022-10-19T19:24:02.096Z,95897.75
2022-10-19T19:26:31.900Z,95901.84
2022-10-19T19:28:58.928Z,95905.13
2022-10-19T19:31:26.666Z,95899.38
2022-10-19T19:33:53.219Z,95907.16
2022-10-19T19:36:20.503Z,95903.47
2022-10-19T19:38:47.602Z,95901.03
2022-10-19T19:41:15.926Z,95897.34
2022-10-19T19:43:43.550Z,95902.22
2022-10-19T19:46:13.790Z,95910.84
2022-10-19T19:48:42.367Z,95907.56
2022-10-19T19:51:11.672Z,95904.28
2022-10-19T19:53:38.661Z,95900.81
2022-10-19T19:56:11.016Z,95900.81
2022-10-19T19:58:37.662Z,95903.91
2022-10-19T20:01:12.166Z,95905.16
2022-10-19T20:03:42.848Z,95909.25
2022-10-19T20:06:10.154Z,95913.34
2022-10-19T20:08:37.095Z,95909.88
2022-10-19T20:11:13.363Z,95907.22
2022-10-19T20:13:40.527Z,95911.31
2022-10-19T20:16:12.538Z,95913.59
2022-10-19T20:18:40.447Z,95905.22
2022-10-19T20:21:06.949Z,95906.44
2022-10-19T20:23:33.410Z,95900.72
2022-10-19T20:25:59.894Z,95901.94
2022-10-19T20:28:27.341Z,95915.88
2022-10-19T20:31:12.983Z,95918.94
2022-10-19T20:33:42.341Z,95921.19
2022-10-19T20:36:13.093Z,95931.41
2022-10-19T20:38:44.630Z,95923.19
2022-10-19T20:41:11.205Z,95912.09
2022-10-19T20:43:37.984Z,95919.81
2022-10-19T20:46:14.270Z,95921.38
2022-10-19T20:48:40.843Z,95917.81
2022-10-19T20:51:27.589Z,95922.13
2022-10-19T20:53:59.265Z,95926.88
2022-10-19T20:56:31.741Z,95918.31
2022-10-19T20:59:04.760Z,95920.38
2022-10-19T21:01:33.457Z,95917.09
2022-10-19T21:04:02.152Z,95919.13
2022-10-19T21:06:31.442Z,95905.22
2022-10-19T21:08:58.851Z,95905.81
2022-10-19T21:11:28.307Z,95903.56
2022-10-19T21:13:57.164Z,95899.44
2022-10-19T21:16:26.057Z,95909.66
2022-10-19T21:18:52.559Z,95910.69
2022-10-19T21:21:20.439Z,95917.03
2022-10-19T21:23:50.450Z,95916.63
2022-10-19T21:26:17.356Z,95926.50
2022-10-19T21:28:49.678Z,95924.25
2022-10-19T21:31:17.477Z,95913.63
2022-10-19T21:33:44.426Z,95921.38
2022-10-19T21:36:13.248Z,95922.19
2022-10-19T21:38:40.608Z,95924.06
2022-10-19T21:41:11.490Z,95924.88
2022-10-19T21:43:38.025Z,95921.19
2022-10-19T21:46:08.404Z,95915.88
2022-10-19T21:48:34.922Z,95925.88
2022-10-19T21:51:28.765Z,95918.72
2022-10-19T21:53:55.352Z,95907.25
2022-10-19T21:56:21.921Z,95909.50
2022-10-19T21:58:50.676Z,95906.84
2022-10-19T22:01:19.060Z,95907.28
2022-10-19T22:03:45.612Z,95892.94
2022-10-19T22:06:13.220Z,95891.31
2022-10-19T22:08:44.869Z,95896.19
2022-10-19T22:11:13.580Z,95904.38
2022-10-19T22:13:40.133Z,95895.38
2022-10-19T22:16:27.232Z,95894.75
2022-10-19T22:18:54.906Z,95893.34
2022-10-19T22:21:28.551Z,95896.63
2022-10-19T22:23:58.053Z,95894.13
2022-10-19T22:26:36.504Z,95891.91
2022-10-19T22:29:04.876Z,95881.03
2022-10-19T22:31:32.864Z,95876.38
2022-10-19T22:34:04.228Z,95878.19
2022-10-19T22:36:33.233Z,95874.91
2022-10-19T22:38:59.830Z,95876.91
2022-10-19T22:41:26.305Z,95875.66
2022-10-19T22:44:30.615Z,95870.72
2022-10-19T22:47:34.612Z,95862.50
2022-10-19T22:50:38.327Z,95869.06
2022-10-19T22:53:04.805Z,95862.09
2022-10-19T22:55:31.438Z,95865.56
2022-10-19T22:57:58.009Z,95862.06
2022-10-19T23:00:24.755Z,95852.00
2022-10-19T23:02:51.208Z,95853.47
2022-10-19T23:05:17.925Z,95856.75
2022-10-19T23:07:44.468Z,95852.81
2022-10-19T23:10:10.969Z,95853.81
2022-10-19T23:12:37.419Z,95850.13
2022-10-19T23:15:04.214Z,95839.88
2022-10-19T23:17:30.685Z,95838.50
2022-10-19T23:19:57.186Z,95830.72
2022-10-19T23:22:23.911Z,95832.75
2022-10-19T23:24:50.404Z,95832.59
2022-10-19T23:27:16.882Z,95831.78
2022-10-19T23:29:43.383Z,95819.53
2022-10-19T23:32:09.951Z,95822.34
2022-10-19T23:34:36.444Z,95820.72
2022-10-19T23:37:02.922Z,95826.13
2022-10-19T23:39:29.376Z,95819.16
2022-10-19T23:41:55.884Z,95816.16
2022-10-19T23:44:22.343Z,95818.75
2022-10-19T23:46:48.867Z,95823.66
2022-10-19T23:49:15.324Z,95812.59
2022-10-19T23:51:41.799Z,95815.00
2022-10-19T23:54:08.297Z,95811.75
2022-10-19T23:56:34.812Z,95819.53
2022-10-19T23:59:01.399Z,95817.25
